createdAt,value
2023-03-05T00:02:30.279Z,98752.11
2023-03-05T00:05:34.879Z,98753.33
2023-03-05T00:08:37.737Z,98755.27
2023-03-05T00:11:40.378Z,98752.50
2023-03-05T00:14:43.006Z,98751.74
2023-03-05T00:17:45.679Z,98748.31
2023-03-05T00:20:48.339Z,98745.41
2023-03-05T00:23:52.030Z,98743.30
2023-03-05T00:26:55.971Z,98740.87
2023-03-05T00:29:58.818Z,98740.17
2023-03-05T00:33:02.086Z,98739.36
2023-03-05T00:36:06.283Z,98735.48
2023-03-05T00:39:09.791Z,98730.42
2023-03-05T00:42:12.504Z,98730.13
2023-03-05T00:45:15.171Z,98725.73
2023-03-05T00:48:17.925Z,98720.77
2023-03-05T00:51:20.646Z,98719.23
2023-03-05T00:54:23.515Z,98715.30
2023-03-05T00:57:27.371Z,98709.11
2023-03-05T01:00:30.051Z,98706.21
2023-03-05T01:03:34.529Z,98703.04
2023-03-05T01:06:39.291Z,98697.81
2023-03-05T01:09:41.915Z,98699.54
2023-03-05T01:12:44.528Z,98694.81
2023-03-05T01:15:48.775Z,98693.81
2023-03-05T01:18:52.221Z,98692.16
2023-03-05T01:21:55.224Z,98688.13
2023-03-05T01:24:58.032Z,98685.88
2023-03-05T01:28:01.308Z,98682.38
2023-03-05T01:31:06.838Z,98684.54
2023-03-05T01:34:09.812Z,98680.62
2023-03-05T01:37:12.656Z,98680.06
2023-03-05T01:40:16.996Z,98676.41
2023-03-05T01:43:23.406Z,98675.50
2023-03-05T01:46:27.917Z,98670.07
2023-03-05T01:49:38.748Z,98668.33
2023-03-05T01:52:43.623Z,98663.05
2023-03-05T01:55:46.423Z,98660.86
2023-03-05T01:58:50.068Z,98660.73
2023-03-05T02:01:54.908Z,98653.16
2023-03-05T02:05:01.556Z,98652.09
2023-03-05T02:08:07.507Z,98653.19
2023-03-05T02:11:10.381Z,98651.02
2023-03-05T02:14:13.116Z,98650.20
2023-03-05T02:17:16.237Z,98641.63
2023-03-05T02:20:20.464Z,98638.70
2023-03-05T02:23:24.898Z,98635.89
2023-03-05T02:26:27.629Z,98633.30
2023-03-05T02:29:30.526Z,98632.94
2023-03-05T02:32:33.231Z,98632.04
2023-03-05T02:35:36.685Z,98628.40
2023-03-05T02:38:40.437Z,98625.77
2023-03-05T02:41:43.462Z,98623.42
2023-03-05T02:44:47.078Z,98618.98
2023-03-05T02:47:49.883Z,98614.94
2023-03-05T02:50:53.353Z,98612.56
2023-03-05T02:53:56.033Z,98612.05
2023-03-05T02:57:01.652Z,98607.55
2023-03-05T03:00:05.382Z,98603.30
2023-03-05T03:03:08.187Z,98600.96
2023-03-05T03:06:10.863Z,98602.70
2023-03-05T03:09:13.511Z,98598.77
2023-03-05T03:12:16.109Z,98597.61
2023-03-05T03:15:19.226Z,98596.86
2023-03-05T03:18:22.091Z,98596.48
2023-03-05T03:21:25.757Z,98596.17
2023-03-05T03:24:30.119Z,98593.50
2023-03-05T03:27:32.828Z,98592.28
2023-03-05T03:30:35.610Z,98593.22
2023-03-05T03:33:38.230Z,98590.98
2023-03-05T03:36:41.167Z,98594.45
2023-03-05T03:39:43.903Z,98590.66
2023-03-05T03:42:46.771Z,98592.05
2023-03-05T03:45:49.673Z,98590.61
2023-03-05T03:48:54.617Z,98587.70
2023-03-05T03:51:58.380Z,98584.29
2023-03-05T03:55:02.129Z,98580.73
2023-03-05T03:58:04.820Z,98583.39
2023-03-05T04:01:07.425Z,98577.44
2023-03-05T04:04:10.564Z,98573.88
2023-03-05T04:07:13.312Z,98571.11
2023-03-05T04:10:15.984Z,98572.04
2023-03-05T04:13:18.766Z,98568.71
2023-03-05T04:16:21.570Z,98565.06
2023-03-05T04:19:24.476Z,98565.13
2023-03-05T04:22:27.362Z,98568.04
2023-03-05T04:25:30.345Z,98562.80
2023-03-05T04:28:33.473Z,98556.30
2023-03-05T04:31:36.091Z,98555.16
2023-03-05T04:34:39.013Z,98550.04
2023-03-05T04:37:41.661Z,98544.27
2023-03-05T04:40:45.175Z,98543.86
2023-03-05T04:43:47.779Z,98541.05
2023-03-05T04:46:50.442Z,98537.37
2023-03-05T04:49:53.180Z,98534.80
2023-03-05T04:52:55.960Z,98531.16
2023-03-05T04:56:01.653Z,98525.57
2023-03-05T04:59:05.883Z,98520.92
2023-03-05T05:02:08.509Z,98519.91
2023-03-05T05:05:22.219Z,98516.64
2023-03-05T05:08:25.108Z,98514.13
2023-03-05T05:11:27.757Z,98513.61
2023-03-05T05:14:30.538Z,98511.52
2023-03-05T05:17:34.181Z,98512.84
2023-03-05T05:20:36.814Z,98510.92
2023-03-05T05:23:42.408Z,98512.57
2023-03-05T05:26:45.083Z,98506.94
2023-03-05T05:29:50.412Z,98503.84
2023-03-05T05:32:53.019Z,98498.67
2023-03-05T05:35:55.695Z,98486.08
2023-03-05T05:38:58.317Z,98484.80
2023-03-05T05:42:01.020Z,98478.06
2023-03-05T05:45:03.862Z,98478.73
2023-03-05T05:48:06.860Z,98483.61
2023-03-05T05:51:13.298Z,98492.06
2023-03-05T05:54:15.951Z,98490.69
2023-03-05T05:57:18.653Z,98489.67
2023-03-05T06:00:21.552Z,98491.84
2023-03-05T06:03:24.332Z,98491.06
2023-03-05T06:06:27.610Z,98490.30
2023-03-05T06:09:30.303Z,98486.49
2023-03-05T06:12:32.925Z,98486.67
2023-03-05T06:15:35.560Z,98486.75
2023-03-05T06:18:38.452Z,98482.20
2023-03-05T06:21:41.594Z,98477.45
2023-03-05T06:24:44.198Z,98477.02
2023-03-05T06:27:46.931Z,98476.88
2023-03-05T06:30:50.235Z,98474.48
2023-03-05T06:33:54.433Z,98472.92
2023-03-05T06:36:57.101Z,98465.64
2023-03-05T06:39:59.711Z,98464.17
2023-03-05T06:43:02.359Z,98452.59
2023-03-05T06:46:11.144Z,98451.77
2023-03-05T06:49:13.880Z,98448.72
2023-03-05T06:52:16.612Z,98451.16
2023-03-05T06:55:19.359Z,98454.64
2023-03-05T06:58:22.039Z,98449.59
2023-03-05T07:01:24.731Z,98446.34
2023-03-05T07:04:27.488Z,98445.24
2023-03-05T07:07:30.483Z,98442.10
2023-03-05T07:10:37.345Z,98436.75
2023-03-05T07:13:40.351Z,98431.52
2023-03-05T07:16:43.090Z,98429.62
2023-03-05T07:19:45.788Z,98426.27
2023-03-05T07:22:48.450Z,98422.52
2023-03-05T07:25:51.146Z,98420.77
2023-03-05T07:28:54.643Z,98414.46
2023-03-05T07:31:57.260Z,98414.61
2023-03-05T07:35:00.725Z,98411.95
2023-03-05T07:38:03.358Z,98410.05
2023-03-05T07:41:07.156Z,98411.68
2023-03-05T07:44:09.838Z,98413.05
2023-03-05T07:47:12.521Z,98407.19
2023-03-05T07:50:15.196Z,98406.90
2023-03-05T07:53:17.894Z,98402.33
2023-03-05T07:56:21.828Z,98403.28
2023-03-05T07:59:24.537Z,98400.52
2023-03-05T08:02:27.299Z,98406.23
2023-03-05T08:05:30.309Z,98411.69
2023-03-05T08:08:33.087Z,98408.48
2023-03-05T08:11:35.705Z,98405.73
2023-03-05T08:14:38.316Z,98399.38
2023-03-05T08:17:41.108Z,98397.85
2023-03-05T08:20:43.883Z,98397.90
2023-03-05T08:23:46.857Z,98395.83
2023-03-05T08:26:49.519Z,98392.19
2023-03-05T08:29:52.122Z,98385.18
2023-03-05T08:32:55.463Z,98387.05
2023-03-05T08:35:58.171Z,98384.79
2023-03-05T08:39:01.052Z,98392.23
2023-03-05T08:42:04.080Z,98385.35
2023-03-05T08:45:07.213Z,98383.59
2023-03-05T08:48:09.819Z,98380.38
2023-03-05T08:51:19.510Z,98375.02
2023-03-05T08:54:22.130Z,98376.73
2023-03-05T08:57:24.924Z,98374.27
2023-03-05T09:00:27.576Z,98372.05
2023-03-05T09:03:30.495Z,98372.27
2023-03-05T09:06:34.528Z,98370.33
2023-03-05T09:09:37.230Z,98359.36
2023-03-05T09:12:40.335Z,98362.68
2023-03-05T09:15:43.081Z,98360.08
2023-03-05T09:18:46.214Z,98361.92
2023-03-05T09:21:48.904Z,98362.35
2023-03-05T09:24:51.511Z,98359.55
2023-03-05T09:27:54.504Z,98357.89
2023-03-05T09:30:57.209Z,98358.61
2023-03-05T09:33:59.874Z,98358.98
2023-03-05T09:37:03.044Z,98360.88
2023-03-05T09:40:06.065Z,98359.27
2023-03-05T09:43:25.998Z,98355.69
2023-03-05T09:46:36.546Z,98352.16
2023-03-05T09:49:57.627Z,98344.73
2023-03-05T09:53:03.049Z,98342.40
2023-03-05T09:56:17.016Z,98335.08
2023-03-05T09:59:19.722Z,98328.06
2023-03-05T10:02:28.333Z,98322.69
2023-03-05T10:05:43.549Z,98318.40
2023-03-05T10:09:03.142Z,98319.81
2023-03-05T10:12:08.035Z,98320.36
2023-03-05T10:15:21.185Z,98311.45
2023-03-05T10:18:40.263Z,98307.75
2023-03-05T10:21:51.782Z,98303.90
2023-03-05T10:25:13.033Z,98301.70
2023-03-05T10:28:19.729Z,98298.29
2023-03-05T10:31:37.210Z,98293.04
2023-03-05T10:34:55.153Z,98290.55
2023-03-05T10:37:57.932Z,98290.77
2023-03-05T10:41:07.787Z,98283.53
2023-03-05T10:44:20.017Z,98279.22
2023-03-05T10:47:25.569Z,98278.39
2023-03-05T10:50:31.803Z,98276.48
2023-03-05T10:53:56.151Z,98268.45
2023-03-05T10:57:14.329Z,98267.00
2023-03-05T11:00:28.038Z,98262.50
2023-03-05T11:03:47.903Z,98259.45
2023-03-05T11:06:50.819Z,98252.80
2023-03-05T11:10:26.204Z,98251.09
2023-03-05T11:13:29.477Z,98248.58
2023-03-05T11:16:47.245Z,98243.54
2023-03-05T11:19:50.087Z,98241.95
2023-03-05T11:23:13.030Z,98234.88
2023-03-05T11:26:21.952Z,98234.05
2023-03-05T11:29:32.283Z,98228.35
2023-03-05T11:32:35.453Z,98221.67
2023-03-05T11:35:40.292Z,98221.27
2023-03-05T11:38:50.413Z,98218.41
2023-03-05T11:42:05.480Z,98217.34
2023-03-05T11:45:15.381Z,98210.29
2023-03-05T11:48:25.916Z,98198.88
2023-03-05T11:51:47.293Z,98195.34
2023-03-05T11:55:02.081Z,98193.39
2023-03-05T11:58:20.773Z,98192.92
2023-03-05T12:01:24.741Z,98193.46
2023-03-05T12:04:27.643Z,98188.66
2023-03-05T12:07:36.256Z,98187.77
2023-03-05T12:10:38.929Z,98184.38
2023-03-05T12:13:45.390Z,98178.68
2023-03-05T12:17:00.636Z,98178.44
2023-03-05T12:20:24.054Z,98175.48
2023-03-05T12:23:29.854Z,98181.23
2023-03-05T12:26:51.124Z,98181.14
2023-03-05T12:29:54.442Z,98178.80
2023-03-05T12:32:57.067Z,98176.30
2023-03-05T12:36:18.493Z,98178.70
2023-03-05T12:39:40.420Z,98181.54
2023-03-05T12:42:50.017Z,98179.73
2023-03-05T12:46:12.889Z,98182.38
2023-03-05T12:49:27.171Z,98183.08
2023-03-05T12:52:32.161Z,98181.48
2023-03-05T12:55:55.678Z,98182.30
2023-03-05T12:59:00.520Z,98179.20
2023-03-05T13:02:05.427Z,98177.14
2023-03-05T13:05:28.674Z,98177.40
2023-03-05T13:08:38.166Z,98175.40
2023-03-05T13:11:42.394Z,98175.57
2023-03-05T13:14:46.320Z,98175.84
2023-03-05T13:18:08.562Z,98176.21
2023-03-05T13:21:15.460Z,98174.36
2023-03-05T13:24:19.397Z,98176.02
2023-03-05T13:27:29.804Z,98174.81
2023-03-05T13:30:34.368Z,98177.95
2023-03-05T13:33:37.812Z,98177.72
2023-03-05T13:36:44.665Z,98175.14
2023-03-05T13:39:48.709Z,98174.84
2023-03-05T13:42:53.398Z,98176.64
2023-03-05T13:45:57.293Z,98171.36
2023-03-05T13:49:19.084Z,98174.47
2023-03-05T13:52:25.670Z,98176.23
2023-03-05T13:55:28.379Z,98171.80
2023-03-05T13:58:52.703Z,98171.89
2023-03-05T14:01:56.716Z,98176.98
2023-03-05T14:05:09.714Z,98176.34
2023-03-05T14:12:37.934Z,98178.20
2023-03-05T14:15:40.640Z,98177.22
2023-03-05T14:18:54.835Z,98176.48
2023-03-05T14:21:57.752Z,98172.17
2023-03-05T14:25:00.470Z,98169.09
2023-03-05T14:28:05.604Z,98169.85
2023-03-05T14:31:15.780Z,98168.98
2023-03-05T14:34:27.428Z,98171.50
2023-03-05T14:37:34.403Z,98176.52
2023-03-05T14:40:37.950Z,98180.31
2023-03-05T14:43:40.622Z,98180.64
2023-03-05T14:46:44.380Z,98184.02
2023-03-05T14:49:47.152Z,98183.48
2023-03-05T14:52:51.400Z,98184.89
2023-03-05T14:55:58.343Z,98187.38
2023-03-05T14:59:01.018Z,98189.00
2023-03-05T15:02:03.651Z,98193.12
2023-03-05T15:08:18.796Z,98196.89
2023-03-05T15:11:22.854Z,98195.77
2023-03-05T15:14:25.504Z,98188.04
2023-03-05T15:17:34.328Z,98183.47
2023-03-05T15:20:39.263Z,98179.92
2023-03-05T15:23:44.477Z,98179.73
2023-03-05T15:26:49.912Z,98182.76
2023-03-05T15:29:53.796Z,98182.95
2023-03-05T15:32:57.943Z,98179.65
2023-03-05T15:36:00.920Z,98178.63
2023-03-05T15:39:03.894Z,98177.44
2023-03-05T15:42:06.971Z,98174.59
2023-03-05T15:45:10.138Z,98175.19
2023-03-05T15:48:12.934Z,98177.25
2023-03-05T15:51:16.622Z,98177.45
2023-03-05T15:54:21.665Z,98179.42
2023-03-05T15:57:24.553Z,98180.67
2023-03-05T16:00:29.764Z,98181.83
2023-03-05T16:03:32.475Z,98176.09
2023-03-05T16:06:35.313Z,98174.77
2023-03-05T16:09:41.382Z,98175.48
2023-03-05T16:12:44.868Z,98176.63
2023-03-05T16:15:52.959Z,98180.46
2023-03-05T16:18:57.655Z,98178.85
2023-03-05T16:22:00.314Z,98178.68
2023-03-05T16:25:03.258Z,98175.50
2023-03-05T16:28:06.304Z,98172.89
2023-03-05T16:31:19.242Z,98171.96
2023-03-05T16:34:23.111Z,98174.09
2023-03-05T16:37:26.289Z,98178.30
2023-03-05T16:40:44.445Z,98182.66
2023-03-05T16:43:59.141Z,98182.86
2023-03-05T16:47:01.870Z,98185.52
2023-03-05T16:50:05.369Z,98185.55
2023-03-05T16:53:08.334Z,98194.96
2023-03-05T16:56:11.068Z,98194.30
2023-03-05T16:59:14.148Z,98195.98
2023-03-05T17:02:17.275Z,98197.50
2023-03-05T17:05:20.553Z,98207.11
2023-03-05T17:08:24.563Z,98210.89
2023-03-05T17:11:27.543Z,98211.29
2023-03-05T17:14:30.187Z,98214.71
2023-03-05T17:17:32.990Z,98214.25
2023-03-05T17:20:36.602Z,98212.25
2023-03-05T17:23:39.779Z,98212.23
2023-03-05T17:26:42.535Z,98215.27
2023-03-05T17:29:45.657Z,98216.75
2023-03-05T17:32:51.752Z,98211.57
2023-03-05T17:35:54.808Z,98215.02
2023-03-05T17:38:57.819Z,98210.85
2023-03-05T17:42:00.691Z,98213.34
2023-03-05T17:45:04.571Z,98216.41
2023-03-05T17:48:09.760Z,98214.49
2023-03-05T17:51:13.851Z,98215.41
2023-03-05T17:54:16.638Z,98216.91
2023-03-05T17:57:20.233Z,98217.73
2023-03-05T18:00:27.518Z,98218.44
2023-03-05T18:03:30.498Z,98220.31
2023-03-05T18:06:33.575Z,98217.09
2023-03-05T18:09:36.347Z,98213.94
2023-03-05T18:12:39.400Z,98221.46
2023-03-05T18:15:47.542Z,98226.48
2023-03-05T18:18:51.276Z,98228.42
2023-03-05T18:21:54.250Z,98226.41
2023-03-05T18:24:58.144Z,98229.73
2023-03-05T18:28:02.513Z,98229.16
2023-03-05T18:31:06.217Z,98230.89
2023-03-05T18:34:09.478Z,98230.42
2023-03-05T18:37:12.391Z,98232.27
2023-03-05T18:40:19.568Z,98232.30
2023-03-05T18:43:23.020Z,98234.54
2023-03-05T18:46:25.831Z,98228.77
2023-03-05T18:49:29.788Z,98229.20
2023-03-05T18:52:32.613Z,98222.91
2023-03-05T18:55:35.487Z,98220.98
2023-03-05T18:58:39.689Z,98221.84
2023-03-05T19:01:44.546Z,98218.63
2023-03-05T19:04:47.393Z,98215.96
2023-03-05T19:07:52.467Z,98215.23
2023-03-05T19:10:55.303Z,98212.10
2023-03-05T19:13:58.534Z,98210.11
2023-03-05T19:17:01.264Z,98205.92
2023-03-05T19:20:06.457Z,98200.99
2023-03-05T19:23:09.288Z,98202.92
2023-03-05T19:26:12.520Z,98200.55
2023-03-05T19:29:15.751Z,98200.14
2023-03-05T19:32:18.541Z,98199.80
2023-03-05T19:35:21.639Z,98197.27
2023-03-05T19:38:25.042Z,98195.70
2023-03-05T19:41:29.509Z,98193.43
2023-03-05T19:44:32.475Z,98193.42
2023-03-05T19:47:35.203Z,98197.23
2023-03-05T19:50:37.845Z,98200.91
2023-03-05T19:53:41.073Z,98202.77
2023-03-05T19:56:44.521Z,98201.75
2023-03-05T19:59:47.284Z,98198.76
2023-03-05T20:02:49.984Z,98207.05
2023-03-05T20:05:52.828Z,98205.97
2023-03-05T20:08:56.431Z,98202.55
2023-03-05T20:12:02.988Z,98201.73
2023-03-05T20:15:06.711Z,98200.27
2023-03-05T20:18:10.111Z,98193.91
2023-03-05T20:21:21.167Z,98192.92
2023-03-05T20:24:24.119Z,98191.02
2023-03-05T20:27:26.805Z,98191.75
2023-03-05T20:30:29.765Z,98195.30
2023-03-05T20:33:34.476Z,98199.80
2023-03-05T20:36:37.684Z,98196.42
2023-03-05T20:39:40.549Z,98195.84
2023-03-05T20:42:43.401Z,98189.86
2023-03-05T20:45:46.311Z,98187.59
2023-03-05T20:48:50.539Z,98182.65
2023-03-05T20:51:53.394Z,98184.79
2023-03-05T20:54:56.176Z,98184.00
2023-03-05T20:57:59.181Z,98185.63
2023-03-05T21:01:01.957Z,98183.25
2023-03-05T21:04:04.730Z,98183.00
2023-03-05T21:07:07.509Z,98182.30
2023-03-05T21:10:11.108Z,98179.27
2023-03-05T21:13:13.958Z,98179.52
2023-03-05T21:16:22.426Z,98177.64
2023-03-05T21:19:25.335Z,98178.98
2023-03-05T21:22:27.962Z,98180.42
2023-03-05T21:25:31.342Z,98181.10
2023-03-05T21:28:34.580Z,98175.34
2023-03-05T21:31:37.723Z,98174.60
2023-03-05T21:34:42.731Z,98175.33
2023-03-05T21:37:45.449Z,98173.59
2023-03-05T21:40:50.068Z,98172.86
2023-03-05T21:43:52.761Z,98170.45
2023-03-05T21:46:55.538Z,98168.59
2023-03-05T21:49:58.372Z,98170.67
2023-03-05T21:53:02.103Z,98167.66
2023-03-05T21:56:31.484Z,98166.16
2023-03-05T21:59:34.644Z,98163.52
2023-03-05T22:02:37.649Z,98160.72
2023-03-05T22:05:42.656Z,98162.63
2023-03-05T22:08:45.861Z,98162.16
2023-03-05T22:11:51.072Z,98168.24
2023-03-05T22:14:53.794Z,98158.09
2023-03-05T22:17:56.454Z,98161.71
2023-03-05T22:20:59.624Z,98158.94
2023-03-05T22:24:02.281Z,98151.25
2023-03-05T22:27:04.937Z,98148.94
2023-03-05T22:30:08.758Z,98154.95
2023-03-05T22:33:12.373Z,98154.83
2023-03-05T22:36:15.541Z,98155.37
2023-03-05T22:39:18.311Z,98154.73
2023-03-05T22:42:21.092Z,98157.09
2023-03-05T22:45:26.244Z,98158.48
2023-03-05T22:48:28.896Z,98155.63
2023-03-05T22:51:31.671Z,98158.52
2023-03-05T22:54:34.317Z,98156.15
2023-03-05T22:57:36.968Z,98159.59
2023-03-05T23:00:40.497Z,98161.17
2023-03-05T23:03:58.818Z,98158.60
2023-03-05T23:07:10.622Z,98159.34
2023-03-05T23:10:18.118Z,98157.67
2023-03-05T23:13:20.833Z,98157.11
2023-03-05T23:16:23.547Z,98155.13
2023-03-05T23:19:26.344Z,98155.23
2023-03-05T23:22:29.118Z,98158.92
2023-03-05T23:25:33.653Z,98158.00
2023-03-05T23:28:36.304Z,98156.59
2023-03-05T23:31:38.957Z,98153.80
2023-03-05T23:34:41.661Z,98150.69
2023-03-05T23:37:44.415Z,98155.91
2023-03-05T23:40:48.488Z,98148.86
2023-03-05T23:43:51.141Z,98146.45
2023-03-05T23:46:53.740Z,98144.40
2023-03-05T23:49:56.452Z,98149.31
2023-03-05T23:53:01.821Z,98151.36
2023-03-05T23:56:10.098Z,98149.56
2023-03-05T23:59:12.960Z,98148.38
